Terminal Aerodrome Forecast
Issued by NWS

Home | Current Version | Previous Version | Text Only | Print | Product List | Glossary On
Versions: 1 2 3 4 5 6 7 8 9 10 11 12 13 14
666
FTUS45 KABQ 241743
TAFLVS
TAF
KLVS 241743Z 2418/2518 VRB05KT P6SM SCT090 SCT150
     FM241900 18011KT P6SM VCSH SCT100 BKN150
      TEMPO 2419/2422 VRB20G30KT 6SM -TSRA BKN080CB
     FM242300 VRB15G25KT P6SM VCSH BKN090
     FM250400 03007KT P6SM BKN090
     FM251700 17010KT P6SM SCT100 SCT150=

USA.gov is the U.S. government's official web portal to all federal, state and local government web resources and services.